createdAt,value
2022-12-01T00:01:41.520Z,61.67
2022-12-01T00:04:07.968Z,61.30
2022-12-01T00:06:34.426Z,65.43
2022-12-01T00:09:20.280Z,64.27
2022-12-01T00:11:46.952Z,67.37
2022-12-01T00:14:13.385Z,81.77
2022-12-01T00:16:41.034Z,74.87
2022-12-01T00:19:08.679Z,68.93
2022-12-01T00:21:35.133Z,66.33
2022-12-01T00:24:01.569Z,59.17
2022-12-01T00:26:28.065Z,62.90
2022-12-01T00:28:59.138Z,65.40
2022-12-01T00:31:26.643Z,65.53
2022-12-01T00:33:53.221Z,59.47
2022-12-01T00:36:19.815Z,76.27
2022-12-01T00:38:46.823Z,71.93
2022-12-01T00:41:13.604Z,79.27
2022-12-01T00:43:40.768Z,62.33
2022-12-01T00:46:07.286Z,68.50
2022-12-01T00:48:33.766Z,72.23
2022-12-01T00:51:00.177Z,65.40
2022-12-01T00:53:26.615Z,66.27
2022-12-01T00:55:55.857Z,69.90
2022-12-01T00:58:23.047Z,57.37
2022-12-01T01:00:49.893Z,62.23
2022-12-01T01:03:16.756Z,59.10
2022-12-01T01:05:43.810Z,67.33
2022-12-01T01:08:12.267Z,63.87
2022-12-01T01:10:44.506Z,51.27
2022-12-01T01:13:12.145Z,50.10
2022-12-01T01:15:38.939Z,54.10
2022-12-01T01:18:05.773Z,57.37
2022-12-01T01:20:33.111Z,49.90
2022-12-01T01:22:59.547Z,53.37
2022-12-01T01:25:26.126Z,57.83
2022-12-01T01:27:52.572Z,61.53
2022-12-01T01:30:19.252Z,65.67
2022-12-01T01:32:45.718Z,57.67
2022-12-01T01:35:12.200Z,58.63
2022-12-01T01:37:38.614Z,67.10
2022-12-01T01:40:05.794Z,78.57
2022-12-01T01:42:32.217Z,72.77
2022-12-01T01:44:58.944Z,67.50
2022-12-01T01:47:32.177Z,77.30
2022-12-01T01:50:06.072Z,70.20
2022-12-01T01:52:34.363Z,63.37
2022-12-01T01:55:00.875Z,69.70
2022-12-01T01:57:29.639Z,64.73
2022-12-01T02:00:01.693Z,68.73
2022-12-01T02:02:28.169Z,63.57
2022-12-01T02:04:59.413Z,73.30
2022-12-01T02:07:25.930Z,65.77
2022-12-01T02:09:53.339Z,68.53
2022-12-01T02:12:57.306Z,63.33
2022-12-01T02:15:35.624Z,69.67
2022-12-01T02:18:14.045Z,65.07
2022-12-01T02:20:49.373Z,72.67
2022-12-01T02:23:39.954Z,69.83
2022-12-01T02:26:33.658Z,57.83
2022-12-01T02:29:24.829Z,67.13
2022-12-01T02:32:08.257Z,64.57
2022-12-01T02:34:40.052Z,65.23
2022-12-01T02:37:14.301Z,60.03
2022-12-01T02:40:03.650Z,61.03
2022-12-01T02:42:50.497Z,64.03
2022-12-01T02:45:26.354Z,59.50
2022-12-01T02:47:54.860Z,58.33
2022-12-01T02:50:22.623Z,68.87
2022-12-01T02:52:49.299Z,66.80
2022-12-01T02:55:15.721Z,63.67
2022-12-01T02:57:42.139Z,64.10
2022-12-01T03:00:13.441Z,58.17
2022-12-01T03:02:50.557Z,60.80
2022-12-01T03:05:29.024Z,59.30
2022-12-01T03:08:16.074Z,69.97
2022-12-01T03:10:55.114Z,71.13
2022-12-01T03:13:27.486Z,66.07
2022-12-01T03:16:12.771Z,74.37
2022-12-01T03:18:43.687Z,65.07
2022-12-01T03:21:33.838Z,69.80
2022-12-01T03:24:05.274Z,70.23
2022-12-01T03:26:33.105Z,73.77
2022-12-01T03:29:04.061Z,73.10
2022-12-01T03:31:33.289Z,74.43
2022-12-01T03:34:05.147Z,59.80
2022-12-01T03:36:41.539Z,64.93
2022-12-01T03:39:13.301Z,70.20
2022-12-01T03:41:43.385Z,66.03
2022-12-01T03:44:15.636Z,59.83
2022-12-01T03:46:55.443Z,72.83
2022-12-01T03:49:23.706Z,61.37
2022-12-01T03:52:05.704Z,59.10
2022-12-01T03:54:50.222Z,66.77
2022-12-01T03:57:21.380Z,68.00
2022-12-01T03:59:48.100Z,58.00
2022-12-01T04:02:14.824Z,61.30
2022-12-01T04:04:41.270Z,62.77
2022-12-01T04:07:08.024Z,65.13
2022-12-01T04:09:34.434Z,65.30
2022-12-01T04:12:19.587Z,54.47
2022-12-01T04:14:46.011Z,58.50
2022-12-01T04:17:12.430Z,57.07
2022-12-01T04:19:38.828Z,58.90
2022-12-01T04:22:05.233Z,51.97
2022-12-01T04:24:31.697Z,64.83
2022-12-01T04:26:58.114Z,65.93
2022-12-01T04:29:24.543Z,63.63
2022-12-01T04:31:51.062Z,62.87
2022-12-01T04:34:17.566Z,65.83
2022-12-01T04:36:43.995Z,69.03
2022-12-01T04:39:10.412Z,60.00
2022-12-01T04:41:36.821Z,57.70
2022-12-01T04:44:03.276Z,59.53
2022-12-01T04:46:29.932Z,63.30
2022-12-01T04:48:56.406Z,59.80
2022-12-01T04:51:23.015Z,66.57
2022-12-01T04:53:50.182Z,65.13
2022-12-01T04:56:16.762Z,61.97
2022-12-01T04:58:43.582Z,58.13
2022-12-01T05:01:15.261Z,63.63
2022-12-01T05:03:44.283Z,66.00
2022-12-01T05:06:13.468Z,64.50
2022-12-01T05:08:40.261Z,66.87
2022-12-01T05:11:07.948Z,69.20
2022-12-01T05:13:36.756Z,63.20
2022-12-01T05:16:12.258Z,60.73
2022-12-01T05:18:38.911Z,64.83
2022-12-01T05:21:07.377Z,69.87
2022-12-01T05:23:35.837Z,63.47
2022-12-01T05:26:03.335Z,61.63
2022-12-01T05:28:30.003Z,64.43
2022-12-01T05:30:56.503Z,64.23
2022-12-01T05:33:23.679Z,64.07
2022-12-01T05:35:50.826Z,63.53
2022-12-01T05:38:18.393Z,70.20
2022-12-01T05:40:52.839Z,75.97
2022-12-01T05:43:25.253Z,75.90
2022-12-01T05:45:55.468Z,67.00
2022-12-01T05:48:22.015Z,65.73
2022-12-01T05:50:48.448Z,73.17
2022-12-01T05:53:15.216Z,68.77
2022-12-01T05:55:42.143Z,74.87
2022-12-01T05:58:08.696Z,67.87
2022-12-01T06:00:37.550Z,59.37
2022-12-01T06:03:06.301Z,73.73
2022-12-01T06:05:32.733Z,64.30
2022-12-01T06:07:59.171Z,68.77
2022-12-01T06:10:25.609Z,59.77
2022-12-01T06:12:52.026Z,63.33
2022-12-01T06:15:18.499Z,58.63
2022-12-01T06:17:44.928Z,56.23
2022-12-01T06:20:11.863Z,58.53
2022-12-01T06:22:38.295Z,65.23
2022-12-01T06:25:05.054Z,55.00
2022-12-01T06:27:31.469Z,61.93
2022-12-01T06:29:57.937Z,67.03
2022-12-01T06:32:24.349Z,59.83
2022-12-01T06:34:50.758Z,57.17
2022-12-01T06:37:17.224Z,62.93
2022-12-01T06:39:43.721Z,68.60
2022-12-01T06:42:10.362Z,56.83
2022-12-01T06:44:37.166Z,53.37
2022-12-01T06:47:03.897Z,53.80
2022-12-01T06:49:30.347Z,54.60
2022-12-01T06:51:56.822Z,57.50
2022-12-01T06:54:23.242Z,54.10
2022-12-01T06:56:49.699Z,60.40
2022-12-01T06:59:16.410Z,71.37
2022-12-01T07:01:43.510Z,57.77
2022-12-01T07:04:09.956Z,63.67
2022-12-01T07:06:36.347Z,65.63
2022-12-01T07:09:02.858Z,69.17
2022-12-01T07:11:32.111Z,64.60
2022-12-01T07:13:58.920Z,66.33
2022-12-01T07:16:25.442Z,59.77
2022-12-01T07:18:52.793Z,79.43
2022-12-01T07:21:19.189Z,74.73
2022-12-01T07:23:45.649Z,77.97
2022-12-01T07:26:14.633Z,70.40
2022-12-01T07:28:41.314Z,75.57
2022-12-01T07:31:16.490Z,63.07
2022-12-01T07:33:43.133Z,64.97
2022-12-01T07:36:11.610Z,64.67
2022-12-01T07:38:38.783Z,65.93
2022-12-01T07:41:10.966Z,67.33
2022-12-01T07:43:37.603Z,64.87
2022-12-01T07:46:21.806Z,61.07
2022-12-01T07:48:49.477Z,61.87
2022-12-01T07:51:16.756Z,63.43
2022-12-01T07:53:48.002Z,69.67
2022-12-01T07:56:14.549Z,62.20
2022-12-01T07:58:41.267Z,68.00
2022-12-01T08:01:09.229Z,62.77
2022-12-01T08:03:36.252Z,69.87
2022-12-01T08:06:03.250Z,63.63
2022-12-01T08:08:32.240Z,64.07
2022-12-01T08:11:03.881Z,68.80
2022-12-01T08:13:30.703Z,72.37
2022-12-01T08:15:57.256Z,69.10
2022-12-01T08:18:24.019Z,62.37
2022-12-01T08:20:50.865Z,60.83
2022-12-01T08:23:17.392Z,62.33
2022-12-01T08:25:43.791Z,66.43
2022-12-01T08:28:10.404Z,59.37
2022-12-01T08:30:36.799Z,64.50
2022-12-01T08:33:03.247Z,61.10
2022-12-01T08:35:29.661Z,62.30
2022-12-01T08:37:56.064Z,62.27
2022-12-01T08:40:22.508Z,63.20
2022-12-01T08:42:49.088Z,63.57
2022-12-01T08:45:15.567Z,63.60
2022-12-01T08:47:42.027Z,67.13
2022-12-01T08:50:08.756Z,62.80
2022-12-01T08:52:35.264Z,65.77
2022-12-01T08:55:01.795Z,63.03
2022-12-01T08:57:31.808Z,62.43
2022-12-01T08:59:58.242Z,57.03
2022-12-01T09:02:25.118Z,59.50
2022-12-01T09:04:51.595Z,63.00
2022-12-01T09:07:22.925Z,65.73
2022-12-01T09:09:52.903Z,52.60
2022-12-01T09:12:19.688Z,60.83
2022-12-01T09:14:48.198Z,62.37
2022-12-01T09:17:15.227Z,62.77
2022-12-01T09:19:42.491Z,69.83
2022-12-01T09:22:09.973Z,66.23
2022-12-01T09:24:36.520Z,69.87
2022-12-01T09:27:03.499Z,75.93
2022-12-01T09:29:30.410Z,69.90
2022-12-01T09:31:59.252Z,72.20
2022-12-01T09:34:26.255Z,64.13
2022-12-01T09:36:56.598Z,69.63
2022-12-01T09:39:23.121Z,68.23
2022-12-01T09:42:14.035Z,72.37
2022-12-01T09:44:47.575Z,69.10
2022-12-01T09:47:19.177Z,67.27
2022-12-01T09:50:00.125Z,72.43
2022-12-01T09:52:38.661Z,69.07
2022-12-01T09:55:11.982Z,68.43
2022-12-01T09:57:40.281Z,63.47
2022-12-01T10:00:30.979Z,76.33
2022-12-01T10:03:16.061Z,69.23
2022-12-01T10:06:18.543Z,69.53
2022-12-01T10:08:36.393Z,60.47
2022-12-01T10:11:13.567Z,68.13
2022-12-01T10:13:41.894Z,60.93
2022-12-01T10:16:13.596Z,69.53
2022-12-01T10:19:05.944Z,73.40
2022-12-01T10:21:40.981Z,67.77
2022-12-01T10:24:25.982Z,68.80
2022-12-01T10:27:22.341Z,68.33
2022-12-01T10:29:55.887Z,67.07
2022-12-01T10:32:33.100Z,58.23
2022-12-01T10:34:59.541Z,71.77
2022-12-01T10:37:27.320Z,70.83
2022-12-01T10:39:55.301Z,73.13
2022-12-01T10:42:39.093Z,65.80
2022-12-01T10:45:10.362Z,66.23
2022-12-01T10:47:37.284Z,65.80
2022-12-01T10:50:04.244Z,64.03
2022-12-01T10:52:38.236Z,65.37
2022-12-01T10:55:22.862Z,64.23
2022-12-01T10:57:50.053Z,56.43
2022-12-01T11:00:51.422Z,69.03
2022-12-01T11:03:23.152Z,67.00
2022-12-01T11:05:58.021Z,52.10
2022-12-01T11:08:52.129Z,61.93
2022-12-01T11:11:25.560Z,58.50
2022-12-01T11:13:52.287Z,61.50
2022-12-01T11:16:35.682Z,61.13
2022-12-01T11:19:25.300Z,57.40
2022-12-01T11:21:56.655Z,56.97
2022-12-01T11:24:44.443Z,50.23
2022-12-01T11:27:20.681Z,55.57
2022-12-01T11:29:49.848Z,51.73
2022-12-01T11:32:20.957Z,46.87
2022-12-01T11:34:57.299Z,52.03
2022-12-01T11:37:27.838Z,53.10
2022-12-01T11:39:54.488Z,51.20
2022-12-01T11:42:26.943Z,52.27
2022-12-01T11:44:56.779Z,57.60
2022-12-01T11:47:27.995Z,53.27
2022-12-01T11:50:02.784Z,54.20
2022-12-01T11:52:31.693Z,52.73
2022-12-01T11:55:29.656Z,58.77
2022-12-01T11:58:00.150Z,47.17
2022-12-01T12:00:29.673Z,58.57
2022-12-01T12:03:03.162Z,55.13
2022-12-01T12:05:38.679Z,53.90
2022-12-01T12:08:17.181Z,51.43
2022-12-01T12:10:55.641Z,48.77
2022-12-01T12:13:31.787Z,46.03
2022-12-01T12:16:08.681Z,49.00
2022-12-01T12:18:56.283Z,51.57
2022-12-01T12:21:33.855Z,47.53
2022-12-01T12:24:25.359Z,56.33
2022-12-01T12:27:16.381Z,47.93
2022-12-01T12:30:23.471Z,54.83
2022-12-01T12:33:08.513Z,49.67
2022-12-01T12:35:44.096Z,49.00
2022-12-01T12:38:25.683Z,58.10
2022-12-01T12:41:18.824Z,60.10
2022-12-01T12:44:05.436Z,58.83
2022-12-01T12:46:48.011Z,61.30
2022-12-01T12:49:44.179Z,51.73
2022-12-01T12:52:16.218Z,60.47
2022-12-01T12:55:04.134Z,52.50
2022-12-01T12:57:38.197Z,57.10
2022-12-01T13:00:15.370Z,62.00
2022-12-01T13:02:53.175Z,56.27
2022-12-01T13:05:40.451Z,62.67
2022-12-01T13:08:56.567Z,69.90
2022-12-01T13:11:27.616Z,65.97
2022-12-01T13:14:21.943Z,65.57
2022-12-01T13:16:50.477Z,63.93
2022-12-01T13:19:22.596Z,65.20
2022-12-01T13:21:50.277Z,65.93
2022-12-01T13:24:23.494Z,60.73
2022-12-01T13:26:54.147Z,58.13
2022-12-01T13:29:23.075Z,58.43
2022-12-01T13:31:51.221Z,66.80
2022-12-01T13:34:22.087Z,63.13
2022-12-01T13:36:53.025Z,56.53
2022-12-01T13:39:27.914Z,60.03
2022-12-01T13:42:06.910Z,62.90
2022-12-01T13:44:40.524Z,59.07
2022-12-01T13:47:09.935Z,59.93
2022-12-01T13:49:44.846Z,52.47
2022-12-01T13:52:25.709Z,59.03
2022-12-01T13:55:07.337Z,54.83
2022-12-01T13:57:44.448Z,53.13
2022-12-01T14:00:28.633Z,48.90
2022-12-01T14:03:13.409Z,56.10
2022-12-01T14:05:39.795Z,67.37
2022-12-01T14:08:31.244Z,57.87
2022-12-01T14:10:58.564Z,59.00
2022-12-01T14:13:25.871Z,64.47
2022-12-01T14:15:58.148Z,62.10
2022-12-01T14:18:34.283Z,63.17
2022-12-01T14:21:03.071Z,57.87
2022-12-01T14:23:33.752Z,63.20
2022-12-01T14:26:19.652Z,60.23
2022-12-01T14:28:55.079Z,55.57
2022-12-01T14:31:46.235Z,53.00
2022-12-01T14:34:19.279Z,61.20
2022-12-01T14:36:52.330Z,66.83
2022-12-01T14:39:19.647Z,64.57
2022-12-01T14:41:48.999Z,71.67
2022-12-01T14:44:31.466Z,65.90
2022-12-01T14:47:04.937Z,63.37
2022-12-01T14:49:35.234Z,71.30
2022-12-01T14:52:05.485Z,69.43
2022-12-01T14:54:38.152Z,67.87
2022-12-01T14:57:08.133Z,73.30
2022-12-01T14:59:36.629Z,67.80
2022-12-01T15:02:12.227Z,75.80
2022-12-01T15:05:07.473Z,63.80
2022-12-01T15:07:39.639Z,69.97
2022-12-01T15:10:15.043Z,61.77
2022-12-01T15:12:41.455Z,58.63
2022-12-01T15:15:24.365Z,66.83
2022-12-01T15:17:52.123Z,57.00
2022-12-01T15:20:36.306Z,57.97
2022-12-01T15:23:17.051Z,65.40
2022-12-01T15:25:45.264Z,66.80
2022-12-01T15:28:19.862Z,65.27
2022-12-01T15:30:55.456Z,63.60
2022-12-01T15:33:32.776Z,61.70
2022-12-01T15:36:02.487Z,58.33
2022-12-01T15:38:34.563Z,56.37
2022-12-01T15:43:56.734Z,68.53
2022-12-01T15:46:30.999Z,57.57
2022-12-01T15:49:19.806Z,62.93
2022-12-01T15:51:48.185Z,61.87
2022-12-01T15:54:20.667Z,66.00
2022-12-01T15:56:51.865Z,61.77
2022-12-01T15:59:26.082Z,56.47
2022-12-01T16:01:52.653Z,58.73
2022-12-01T16:04:21.612Z,63.63
2022-12-01T16:06:55.327Z,60.67
2022-12-01T16:09:26.723Z,57.47
2022-12-01T16:12:11.816Z,56.83
2022-12-01T16:14:50.116Z,62.87
2022-12-01T16:17:17.170Z,58.47
2022-12-01T16:19:45.393Z,54.70
2022-12-01T16:22:11.694Z,56.63
2022-12-01T16:24:54.776Z,62.57
2022-12-01T16:27:31.680Z,55.80
2022-12-01T16:30:01.390Z,60.33
2022-12-01T16:32:34.132Z,57.97
2022-12-01T16:35:00.873Z,55.33
2022-12-01T16:37:27.613Z,60.00
2022-12-01T16:39:54.093Z,58.13
2022-12-01T16:42:23.907Z,63.93
2022-12-01T16:44:51.427Z,60.43
2022-12-01T16:47:19.281Z,61.53
2022-12-01T16:49:46.052Z,65.23
2022-12-01T16:54:59.001Z,106.20
2022-12-01T16:57:25.456Z,74.87
2022-12-01T16:59:51.877Z,70.87
2022-12-01T17:02:18.286Z,68.00
2022-12-01T17:04:44.743Z,82.27
2022-12-01T17:07:11.173Z,65.53
2022-12-01T17:09:37.571Z,75.43
2022-12-01T17:12:04.173Z,83.87
2022-12-01T17:14:30.594Z,80.77
2022-12-01T17:17:00.279Z,80.77
2022-12-01T17:19:26.721Z,78.97
2022-12-01T17:21:53.184Z,77.37
2022-12-01T17:24:19.660Z,82.53
2022-12-01T17:26:46.119Z,82.60
2022-12-01T17:29:12.553Z,78.80
2022-12-01T17:31:39.059Z,89.20
2022-12-01T17:34:05.543Z,85.07
2022-12-01T17:36:31.955Z,85.20
2022-12-01T17:38:58.772Z,82.53
2022-12-01T17:41:31.953Z,76.90
2022-12-01T17:43:58.420Z,71.90
2022-12-01T17:46:24.873Z,74.03
2022-12-01T17:48:51.340Z,81.93
2022-12-01T17:51:17.789Z,79.37
2022-12-01T17:53:44.274Z,87.47
2022-12-01T17:56:12.667Z,83.57
2022-12-01T17:58:39.472Z,82.63
2022-12-01T18:01:06.505Z,79.77
2022-12-01T18:03:32.933Z,89.47
2022-12-01T18:06:01.576Z,82.83
2022-12-01T18:08:29.309Z,85.90
2022-12-01T18:10:55.914Z,88.57
2022-12-01T18:13:22.751Z,95.07
2022-12-01T18:15:49.369Z,90.97
2022-12-01T18:18:15.842Z,89.30
2022-12-01T18:20:43.588Z,83.13
2022-12-01T18:23:11.612Z,91.90
2022-12-01T18:25:39.805Z,80.00
2022-12-01T18:28:06.876Z,89.17
2022-12-01T18:30:33.944Z,92.10
2022-12-01T18:33:00.918Z,89.60
2022-12-01T18:35:31.771Z,86.33
2022-12-01T18:37:58.678Z,95.73
2022-12-01T18:40:25.095Z,94.60
2022-12-01T18:42:51.552Z,87.90
2022-12-01T18:45:21.232Z,89.23
2022-12-01T18:47:48.087Z,91.13
2022-12-01T18:50:14.576Z,87.50
2022-12-01T18:52:40.985Z,86.73
2022-12-01T18:55:07.667Z,91.03
2022-12-01T18:57:34.093Z,93.87
2022-12-01T19:00:00.509Z,90.10
2022-12-01T19:02:27.010Z,80.07
2022-12-01T19:04:53.481Z,88.27
2022-12-01T19:07:20.714Z,87.80
2022-12-01T19:09:50.661Z,91.13
2022-12-01T19:12:17.216Z,100.37
2022-12-01T19:14:43.684Z,98.20
2022-12-01T19:17:10.088Z,88.67
2022-12-01T19:19:37.789Z,90.87
2022-12-01T19:22:04.324Z,87.83
2022-12-01T19:24:30.757Z,90.47
2022-12-01T19:26:57.225Z,94.47
2022-12-01T19:29:23.732Z,91.87
2022-12-01T19:31:50.144Z,96.20
2022-12-01T19:34:16.615Z,93.00
2022-12-01T19:36:43.093Z,93.93
2022-12-01T19:39:09.539Z,89.80
2022-12-01T19:41:35.974Z,95.80
2022-12-01T19:44:02.542Z,100.73
2022-12-01T19:46:29.062Z,83.03
2022-12-01T19:49:00.464Z,86.77
2022-12-01T19:51:37.391Z,90.60
2022-12-01T19:54:10.914Z,89.50
2022-12-01T19:56:37.341Z,91.57
2022-12-01T19:59:04.943Z,90.57
2022-12-01T20:01:31.409Z,88.33
2022-12-01T20:03:57.881Z,81.50
2022-12-01T20:06:26.807Z,83.63
2022-12-01T20:08:54.986Z,77.53
2022-12-01T20:11:21.380Z,88.60
2022-12-01T20:13:48.065Z,79.60
2022-12-01T20:16:17.331Z,82.43
2022-12-01T20:18:44.370Z,83.13
2022-12-01T20:21:17.347Z,77.90
2022-12-01T20:23:45.811Z,80.87
2022-12-01T20:26:13.318Z,76.43
2022-12-01T20:28:40.111Z,68.97
2022-12-01T20:31:13.080Z,74.23
2022-12-01T20:33:40.512Z,77.10
2022-12-01T20:36:07.448Z,76.63
2022-12-01T20:38:34.636Z,78.23
2022-12-01T20:41:01.106Z,71.77
2022-12-01T20:43:28.510Z,68.47
2022-12-01T20:45:55.159Z,69.37
2022-12-01T20:48:21.715Z,67.70
2022-12-01T20:50:48.188Z,69.90
2022-12-01T20:53:14.581Z,66.30
2022-12-01T20:55:41.028Z,68.50
2022-12-01T20:58:10.293Z,71.23
2022-12-01T21:00:45.300Z,63.00
2022-12-01T21:03:12.874Z,67.40
2022-12-01T21:05:40.554Z,65.50
2022-12-01T21:08:08.896Z,62.67
2022-12-01T21:10:40.453Z,63.47
2022-12-01T21:13:42.238Z,64.07
2022-12-01T21:16:14.285Z,59.33
2022-12-01T21:18:55.639Z,63.27
2022-12-01T21:21:27.534Z,66.13
2022-12-01T21:24:13.488Z,72.47
2022-12-01T21:27:16.059Z,63.67
2022-12-01T21:29:47.621Z,64.87
2022-12-01T21:32:19.644Z,65.17
2022-12-01T21:34:47.268Z,65.37
2022-12-01T21:37:31.986Z,60.63
2022-12-01T21:39:58.507Z,62.73
2022-12-01T21:42:30.557Z,58.03
2022-12-01T21:44:57.367Z,62.07
2022-12-01T21:47:26.670Z,66.83
2022-12-01T21:49:54.723Z,66.90
2022-12-01T21:52:42.096Z,57.77
2022-12-01T21:55:14.424Z,57.80
2022-12-01T21:57:42.940Z,60.27
2022-12-01T22:00:35.019Z,64.17
2022-12-01T22:03:39.716Z,62.63
2022-12-01T22:06:31.733Z,62.03
2022-12-01T22:09:02.108Z,58.27
2022-12-01T22:11:30.066Z,65.17
2022-12-01T22:14:01.287Z,60.33
2022-12-01T22:16:35.990Z,59.30
2022-12-01T22:19:28.696Z,63.77
2022-12-01T22:22:02.468Z,57.77
2022-12-01T22:24:41.051Z,59.37
2022-12-01T22:27:22.555Z,53.00
2022-12-01T22:29:51.636Z,57.40
2022-12-01T22:32:42.564Z,54.37
2022-12-01T22:35:26.035Z,56.70
2022-12-01T22:37:54.023Z,51.27
2022-12-01T22:40:33.259Z,53.57
2022-12-01T22:43:24.688Z,47.73
2022-12-01T22:46:00.365Z,49.23
2022-12-01T22:48:39.597Z,51.97
2022-12-01T22:51:23.331Z,51.60
2022-12-01T22:53:53.123Z,54.13
2022-12-01T22:56:44.567Z,49.90
2022-12-01T22:59:31.844Z,50.63
2022-12-01T23:02:00.426Z,54.60
2022-12-01T23:04:40.962Z,49.13
2022-12-01T23:07:26.517Z,48.87
2022-12-01T23:09:53.273Z,49.83
2022-12-01T23:12:28.984Z,55.43
2022-12-01T23:14:58.776Z,52.87
2022-12-01T23:17:30.006Z,47.10
2022-12-01T23:20:17.838Z,54.67
2022-12-01T23:22:44.285Z,51.80
2022-12-01T23:25:14.329Z,43.37
2022-12-01T23:27:41.117Z,50.40
2022-12-01T23:30:08.476Z,46.53
2022-12-01T23:32:34.912Z,48.53
2022-12-01T23:35:02.029Z,49.57
2022-12-01T23:37:35.868Z,41.37
2022-12-01T23:40:14.909Z,50.27
2022-12-01T23:42:41.670Z,48.03
2022-12-01T23:45:16.042Z,46.00
2022-12-01T23:47:42.476Z,45.90
2022-12-01T23:50:14.966Z,47.93
2022-12-01T23:52:41.401Z,48.40
2022-12-01T23:55:15.415Z,46.43
2022-12-01T23:57:41.858Z,46.03
